sensor_id;sensor_type;location;lat;lon;timestamp;P1;durP1;ratioP1;P2;durP2;ratioP2
16832;SDS011;8533;48.426;10.868;2023-02-22T00:01:37;11.87;;;5.60;;
16832;SDS011;8533;48.426;10.868;2023-02-22T00:04:06;10.43;;;4.83;;
16832;SDS011;8533;48.426;10.868;2023-02-22T00:06:35;9.27;;;5.37;;
16832;SDS011;8533;48.426;10.868;2023-02-22T00:09:03;6.47;;;4.33;;
16832;SDS011;8533;48.426;10.868;2023-02-22T00:11:32;7.10;;;4.50;;
16832;SDS011;8533;48.426;10.868;2023-02-22T00:14:00;9.13;;;4.43;;
16832;SDS011;8533;48.426;10.868;2023-02-22T00:16:27;9.33;;;4.30;;
16832;SDS011;8533;48.426;10.868;2023-02-22T00:18:55;9.23;;;4.87;;
16832;SDS011;8533;48.426;10.868;2023-02-22T00:21:22;8.93;;;4.57;;
16832;SDS011;8533;48.426;10.868;2023-02-22T00:23:50;8.33;;;5.10;;
16832;SDS011;8533;48.426;10.868;2023-02-22T00:26:19;11.50;;;4.77;;
16832;SDS011;8533;48.426;10.868;2023-02-22T00:28:48;8.33;;;5.00;;
16832;SDS011;8533;48.426;10.868;2023-02-22T00:31:18;10.67;;;5.33;;
16832;SDS011;8533;48.426;10.868;2023-02-22T00:33:46;9.40;;;5.23;;
16832;SDS011;8533;48.426;10.868;2023-02-22T00:36:13;10.77;;;5.43;;
16832;SDS011;8533;48.426;10.868;2023-02-22T00:38:41;9.53;;;5.13;;
16832;SDS011;8533;48.426;10.868;2023-02-22T00:41:08;6.30;;;4.10;;
16832;SDS011;8533;48.426;10.868;2023-02-22T00:43:36;9.60;;;4.80;;
16832;SDS011;8533;48.426;10.868;2023-02-22T00:46:04;8.83;;;5.00;;
16832;SDS011;8533;48.426;10.868;2023-02-22T00:48:32;9.53;;;4.83;;
16832;SDS011;8533;48.426;10.868;2023-02-22T00:51:00;7.37;;;4.57;;
16832;SDS011;8533;48.426;10.868;2023-02-22T00:53:27;8.37;;;4.70;;
16832;SDS011;8533;48.426;10.868;2023-02-22T00:55:54;8.27;;;5.33;;
16832;SDS011;8533;48.426;10.868;2023-02-22T00:58:22;9.17;;;4.90;;
16832;SDS011;8533;48.426;10.868;2023-02-22T01:00:49;7.27;;;4.70;;
16832;SDS011;8533;48.426;10.868;2023-02-22T01:03:17;6.50;;;4.67;;
16832;SDS011;8533;48.426;10.868;2023-02-22T01:05:46;8.70;;;5.00;;
16832;SDS011;8533;48.426;10.868;2023-02-22T01:08:14;7.43;;;4.30;;
16832;SDS011;8533;48.426;10.868;2023-02-22T01:10:43;6.40;;;4.97;;
16832;SDS011;8533;48.426;10.868;2023-02-22T01:13:11;11.23;;;5.23;;
16832;SDS011;8533;48.426;10.868;2023-02-22T01:15:41;9.33;;;5.33;;
16832;SDS011;8533;48.426;10.868;2023-02-22T01:18:09;9.67;;;5.07;;
16832;SDS011;8533;48.426;10.868;2023-02-22T01:20:37;7.80;;;4.57;;
16832;SDS011;8533;48.426;10.868;2023-02-22T01:23:05;9.57;;;5.30;;
16832;SDS011;8533;48.426;10.868;2023-02-22T01:25:32;8.90;;;4.80;;
16832;SDS011;8533;48.426;10.868;2023-02-22T01:28:01;12.53;;;5.17;;
16832;SDS011;8533;48.426;10.868;2023-02-22T01:30:31;9.23;;;5.03;;
16832;SDS011;8533;48.426;10.868;2023-02-22T01:33:02;12.33;;;5.80;;
16832;SDS011;8533;48.426;10.868;2023-02-22T01:35:33;10.67;;;5.30;;
16832;SDS011;8533;48.426;10.868;2023-02-22T01:38:04;8.07;;;5.03;;
16832;SDS011;8533;48.426;10.868;2023-02-22T01:40:34;10.20;;;5.00;;
16832;SDS011;8533;48.426;10.868;2023-02-22T01:43:18;8.83;;;5.67;;
16832;SDS011;8533;48.426;10.868;2023-02-22T01:48:48;12.60;;;5.70;;
16832;SDS011;8533;48.426;10.868;2023-02-22T01:51:23;9.20;;;5.30;;
16832;SDS011;8533;48.426;10.868;2023-02-22T01:54:05;12.00;;;6.00;;
16832;SDS011;8533;48.426;10.868;2023-02-22T01:56:38;8.80;;;5.43;;
16832;SDS011;8533;48.426;10.868;2023-02-22T01:59:08;11.83;;;5.50;;
16832;SDS011;8533;48.426;10.868;2023-02-22T02:01:38;11.67;;;6.10;;
16832;SDS011;8533;48.426;10.868;2023-02-22T02:04:11;10.80;;;6.17;;
16832;SDS011;8533;48.426;10.868;2023-02-22T02:06:43;13.67;;;5.80;;
16832;SDS011;8533;48.426;10.868;2023-02-22T02:09:18;11.93;;;6.33;;
16832;SDS011;8533;48.426;10.868;2023-02-22T02:11:58;11.50;;;6.35;;
16832;SDS011;8533;48.426;10.868;2023-02-22T02:14:27;9.50;;;6.73;;
16832;SDS011;8533;48.426;10.868;2023-02-22T02:16:56;11.30;;;6.23;;
16832;SDS011;8533;48.426;10.868;2023-02-22T02:22:40;13.93;;;6.50;;
16832;SDS011;8533;48.426;10.868;2023-02-22T02:27:45;12.57;;;6.40;;
16832;SDS011;8533;48.426;10.868;2023-02-22T02:33:02;12.55;;;6.70;;
16832;SDS011;8533;48.426;10.868;2023-02-22T02:41:24;10.07;;;6.27;;
16832;SDS011;8533;48.426;10.868;2023-02-22T02:51:51;13.53;;;6.97;;
16832;SDS011;8533;48.426;10.868;2023-02-22T02:54:20;12.50;;;6.63;;
16832;SDS011;8533;48.426;10.868;2023-02-22T02:56:49;11.87;;;6.90;;
16832;SDS011;8533;48.426;10.868;2023-02-22T02:59:24;12.03;;;6.83;;
16832;SDS011;8533;48.426;10.868;2023-02-22T03:09:37;11.67;;;6.57;;
16832;SDS011;8533;48.426;10.868;2023-02-22T03:12:06;10.73;;;6.47;;
16832;SDS011;8533;48.426;10.868;2023-02-22T03:17:15;13.27;;;6.47;;
16832;SDS011;8533;48.426;10.868;2023-02-22T03:27:19;10.33;;;5.13;;
16832;SDS011;8533;48.426;10.868;2023-02-22T03:29:51;7.00;;;5.30;;
16832;SDS011;8533;48.426;10.868;2023-02-22T03:32:22;8.27;;;4.77;;
16832;SDS011;8533;48.426;10.868;2023-02-22T03:35:00;8.10;;;4.50;;
16832;SDS011;8533;48.426;10.868;2023-02-22T03:37:27;14.57;;;5.33;;
16832;SDS011;8533;48.426;10.868;2023-02-22T03:39:56;6.20;;;4.40;;
16832;SDS011;8533;48.426;10.868;2023-02-22T03:42:28;6.63;;;4.03;;
16832;SDS011;8533;48.426;10.868;2023-02-22T03:44:59;9.23;;;5.10;;
16832;SDS011;8533;48.426;10.868;2023-02-22T03:50:08;9.63;;;4.30;;
16832;SDS011;8533;48.426;10.868;2023-02-22T03:55:08;8.23;;;4.67;;
16832;SDS011;8533;48.426;10.868;2023-02-22T03:57:39;5.30;;;4.20;;
16832;SDS011;8533;48.426;10.868;2023-02-22T04:00:09;8.57;;;4.33;;
16832;SDS011;8533;48.426;10.868;2023-02-22T04:02:39;16.00;;;5.40;;
16832;SDS011;8533;48.426;10.868;2023-02-22T04:05:07;8.10;;;5.10;;
16832;SDS011;8533;48.426;10.868;2023-02-22T04:07:35;7.87;;;4.90;;
16832;SDS011;8533;48.426;10.868;2023-02-22T04:10:02;8.60;;;5.80;;
16832;SDS011;8533;48.426;10.868;2023-02-22T04:12:32;6.83;;;4.93;;
16832;SDS011;8533;48.426;10.868;2023-02-22T04:15:00;8.73;;;5.50;;
16832;SDS011;8533;48.426;10.868;2023-02-22T04:17:28;10.13;;;5.53;;
16832;SDS011;8533;48.426;10.868;2023-02-22T04:19:56;9.67;;;5.47;;
16832;SDS011;8533;48.426;10.868;2023-02-22T04:22:24;9.10;;;5.60;;
16832;SDS011;8533;48.426;10.868;2023-02-22T04:24:51;13.53;;;5.67;;
16832;SDS011;8533;48.426;10.868;2023-02-22T04:27:19;9.97;;;6.53;;
16832;SDS011;8533;48.426;10.868;2023-02-22T04:29:46;8.27;;;5.67;;
16832;SDS011;8533;48.426;10.868;2023-02-22T04:32:14;11.43;;;6.40;;
16832;SDS011;8533;48.426;10.868;2023-02-22T04:34:41;12.10;;;6.67;;
16832;SDS011;8533;48.426;10.868;2023-02-22T04:37:09;11.63;;;6.60;;
16832;SDS011;8533;48.426;10.868;2023-02-22T04:39:37;10.23;;;6.30;;
16832;SDS011;8533;48.426;10.868;2023-02-22T04:42:04;14.10;;;7.43;;
16832;SDS011;8533;48.426;10.868;2023-02-22T04:44:32;13.43;;;7.40;;
16832;SDS011;8533;48.426;10.868;2023-02-22T04:46:59;12.87;;;7.27;;
16832;SDS011;8533;48.426;10.868;2023-02-22T04:49:27;18.83;;;8.03;;
16832;SDS011;8533;48.426;10.868;2023-02-22T04:51:54;13.93;;;7.37;;
16832;SDS011;8533;48.426;10.868;2023-02-22T04:54:21;14.17;;;6.93;;
16832;SDS011;8533;48.426;10.868;2023-02-22T04:56:49;12.93;;;7.73;;
16832;SDS011;8533;48.426;10.868;2023-02-22T04:59:16;17.97;;;7.87;;
16832;SDS011;8533;48.426;10.868;2023-02-22T05:01:44;13.33;;;7.43;;
16832;SDS011;8533;48.426;10.868;2023-02-22T05:04:12;15.63;;;8.67;;
16832;SDS011;8533;48.426;10.868;2023-02-22T05:06:39;17.10;;;8.87;;
16832;SDS011;8533;48.426;10.868;2023-02-22T05:09:06;12.60;;;8.20;;
16832;SDS011;8533;48.426;10.868;2023-02-22T05:11:34;13.97;;;8.37;;
16832;SDS011;8533;48.426;10.868;2023-02-22T05:14:01;17.60;;;8.60;;
16832;SDS011;8533;48.426;10.868;2023-02-22T05:16:29;15.07;;;8.23;;
16832;SDS011;8533;48.426;10.868;2023-02-22T05:18:56;17.90;;;9.43;;
16832;SDS011;8533;48.426;10.868;2023-02-22T05:21:23;13.47;;;9.13;;
16832;SDS011;8533;48.426;10.868;2023-02-22T05:23:51;14.70;;;8.77;;
16832;SDS011;8533;48.426;10.868;2023-02-22T05:26:19;15.50;;;8.60;;
16832;SDS011;8533;48.426;10.868;2023-02-22T05:28:46;15.20;;;9.00;;
16832;SDS011;8533;48.426;10.868;2023-02-22T05:31:13;12.63;;;7.70;;
16832;SDS011;8533;48.426;10.868;2023-02-22T05:33:41;13.33;;;7.80;;
16832;SDS011;8533;48.426;10.868;2023-02-22T05:36:09;13.10;;;7.83;;
16832;SDS011;8533;48.426;10.868;2023-02-22T05:38:36;13.10;;;7.97;;
16832;SDS011;8533;48.426;10.868;2023-02-22T05:41:08;13.73;;;7.97;;
16832;SDS011;8533;48.426;10.868;2023-02-22T05:43:37;13.67;;;8.27;;
16832;SDS011;8533;48.426;10.868;2023-02-22T05:46:05;15.53;;;8.30;;
16832;SDS011;8533;48.426;10.868;2023-02-22T05:48:33;13.77;;;8.07;;
16832;SDS011;8533;48.426;10.868;2023-02-22T05:51:01;10.73;;;7.17;;
16832;SDS011;8533;48.426;10.868;2023-02-22T05:53:29;16.63;;;8.07;;
16832;SDS011;8533;48.426;10.868;2023-02-22T05:55:56;13.47;;;8.73;;
16832;SDS011;8533;48.426;10.868;2023-02-22T05:58:24;17.30;;;9.70;;
16832;SDS011;8533;48.426;10.868;2023-02-22T06:00:51;14.43;;;9.63;;
16832;SDS011;8533;48.426;10.868;2023-02-22T06:03:19;17.70;;;8.73;;
16832;SDS011;8533;48.426;10.868;2023-02-22T06:05:46;17.57;;;9.20;;
16832;SDS011;8533;48.426;10.868;2023-02-22T06:08:14;15.00;;;9.10;;
16832;SDS011;8533;48.426;10.868;2023-02-22T06:10:42;19.87;;;8.60;;
16832;SDS011;8533;48.426;10.868;2023-02-22T06:13:10;18.43;;;9.03;;
16832;SDS011;8533;48.426;10.868;2023-02-22T06:15:37;16.27;;;7.53;;
16832;SDS011;8533;48.426;10.868;2023-02-22T06:18:05;12.10;;;7.30;;
16832;SDS011;8533;48.426;10.868;2023-02-22T06:20:32;12.03;;;7.00;;
16832;SDS011;8533;48.426;10.868;2023-02-22T06:23:00;13.30;;;7.70;;
16832;SDS011;8533;48.426;10.868;2023-02-22T06:25:28;13.20;;;7.40;;
16832;SDS011;8533;48.426;10.868;2023-02-22T06:27:57;12.33;;;7.07;;
16832;SDS011;8533;48.426;10.868;2023-02-22T06:30:26;11.70;;;7.70;;
16832;SDS011;8533;48.426;10.868;2023-02-22T06:32:54;14.03;;;8.23;;
16832;SDS011;8533;48.426;10.868;2023-02-22T06:35:22;13.77;;;8.13;;
16832;SDS011;8533;48.426;10.868;2023-02-22T06:37:50;11.30;;;7.63;;
16832;SDS011;8533;48.426;10.868;2023-02-22T06:40:17;13.53;;;7.47;;
16832;SDS011;8533;48.426;10.868;2023-02-22T06:42:46;11.93;;;6.67;;
16832;SDS011;8533;48.426;10.868;2023-02-22T06:45:15;13.30;;;7.33;;
16832;SDS011;8533;48.426;10.868;2023-02-22T06:47:43;15.87;;;9.00;;
16832;SDS011;8533;48.426;10.868;2023-02-22T06:50:19;21.27;;;9.40;;
16832;SDS011;8533;48.426;10.868;2023-02-22T06:55:19;20.57;;;8.47;;
16832;SDS011;8533;48.426;10.868;2023-02-22T06:57:48;13.57;;;7.90;;
16832;SDS011;8533;48.426;10.868;2023-02-22T07:00:16;12.50;;;7.70;;
16832;SDS011;8533;48.426;10.868;2023-02-22T07:02:45;12.23;;;7.77;;
16832;SDS011;8533;48.426;10.868;2023-02-22T07:05:14;15.30;;;7.37;;
16832;SDS011;8533;48.426;10.868;2023-02-22T07:07:43;12.53;;;7.17;;
16832;SDS011;8533;48.426;10.868;2023-02-22T07:10:20;13.90;;;7.03;;
16832;SDS011;8533;48.426;10.868;2023-02-22T07:12:54;14.60;;;7.10;;
16832;SDS011;8533;48.426;10.868;2023-02-22T07:15:23;11.90;;;7.00;;
16832;SDS011;8533;48.426;10.868;2023-02-22T07:17:52;18.70;;;7.13;;
16832;SDS011;8533;48.426;10.868;2023-02-22T07:20:20;10.90;;;6.30;;
16832;SDS011;8533;48.426;10.868;2023-02-22T07:22:49;12.13;;;6.63;;
16832;SDS011;8533;48.426;10.868;2023-02-22T07:25:17;13.80;;;7.00;;
16832;SDS011;8533;48.426;10.868;2023-02-22T07:27:45;13.57;;;7.30;;
16832;SDS011;8533;48.426;10.868;2023-02-22T07:30:17;10.90;;;5.87;;
16832;SDS011;8533;48.426;10.868;2023-02-22T07:35:16;12.67;;;6.20;;
16832;SDS011;8533;48.426;10.868;2023-02-22T07:37:45;12.40;;;7.23;;
16832;SDS011;8533;48.426;10.868;2023-02-22T07:40:13;12.67;;;6.63;;
16832;SDS011;8533;48.426;10.868;2023-02-22T07:42:55;11.50;;;7.10;;
16832;SDS011;8533;48.426;10.868;2023-02-22T07:47:52;9.43;;;6.30;;
16832;SDS011;8533;48.426;10.868;2023-02-22T07:50:21;12.33;;;7.17;;
16832;SDS011;8533;48.426;10.868;2023-02-22T07:52:51;13.80;;;7.20;;
16832;SDS011;8533;48.426;10.868;2023-02-22T07:55:21;11.90;;;7.13;;
16832;SDS011;8533;48.426;10.868;2023-02-22T07:57:51;11.43;;;7.50;;
16832;SDS011;8533;48.426;10.868;2023-02-22T08:00:23;14.90;;;7.97;;
16832;SDS011;8533;48.426;10.868;2023-02-22T08:02:53;14.97;;;7.03;;
16832;SDS011;8533;48.426;10.868;2023-02-22T08:05:21;12.07;;;6.97;;
16832;SDS011;8533;48.426;10.868;2023-02-22T08:07:50;10.40;;;6.70;;
16832;SDS011;8533;48.426;10.868;2023-02-22T08:10:18;11.10;;;6.77;;
16832;SDS011;8533;48.426;10.868;2023-02-22T08:12:47;13.53;;;7.33;;
16832;SDS011;8533;48.426;10.868;2023-02-22T08:15:17;10.83;;;7.10;;
16832;SDS011;8533;48.426;10.868;2023-02-22T08:17:46;12.03;;;7.30;;
16832;SDS011;8533;48.426;10.868;2023-02-22T08:20:14;10.87;;;6.73;;
16832;SDS011;8533;48.426;10.868;2023-02-22T08:22:42;11.03;;;6.97;;
16832;SDS011;8533;48.426;10.868;2023-02-22T08:25:11;11.87;;;6.57;;
16832;SDS011;8533;48.426;10.868;2023-02-22T08:27:40;12.47;;;6.70;;
16832;SDS011;8533;48.426;10.868;2023-02-22T08:30:19;11.80;;;6.63;;
16832;SDS011;8533;48.426;10.868;2023-02-22T08:32:43;10.93;;;6.93;;
16832;SDS011;8533;48.426;10.868;2023-02-22T08:35:13;12.40;;;6.23;;
16832;SDS011;8533;48.426;10.868;2023-02-22T08:37:43;11.00;;;6.50;;
16832;SDS011;8533;48.426;10.868;2023-02-22T08:40:12;15.17;;;7.33;;
16832;SDS011;8533;48.426;10.868;2023-02-22T08:42:44;13.63;;;8.13;;
16832;SDS011;8533;48.426;10.868;2023-02-22T08:45:12;11.60;;;7.23;;
16832;SDS011;8533;48.426;10.868;2023-02-22T08:47:40;15.37;;;7.33;;
16832;SDS011;8533;48.426;10.868;2023-02-22T08:50:08;13.60;;;7.00;;
16832;SDS011;8533;48.426;10.868;2023-02-22T08:52:37;14.30;;;7.33;;
16832;SDS011;8533;48.426;10.868;2023-02-22T08:55:05;14.00;;;6.43;;
16832;SDS011;8533;48.426;10.868;2023-02-22T08:57:32;14.53;;;7.07;;
16832;SDS011;8533;48.426;10.868;2023-02-22T09:00:00;11.50;;;7.57;;
16832;SDS011;8533;48.426;10.868;2023-02-22T09:02:28;10.57;;;7.20;;
16832;SDS011;8533;48.426;10.868;2023-02-22T09:04:56;12.47;;;7.37;;
16832;SDS011;8533;48.426;10.868;2023-02-22T09:07:23;14.53;;;6.97;;
16832;SDS011;8533;48.426;10.868;2023-02-22T09:09:50;16.20;;;7.67;;
16832;SDS011;8533;48.426;10.868;2023-02-22T09:12:18;11.93;;;6.97;;
16832;SDS011;8533;48.426;10.868;2023-02-22T09:14:45;17.97;;;6.90;;
16832;SDS011;8533;48.426;10.868;2023-02-22T09:17:13;13.43;;;7.50;;
16832;SDS011;8533;48.426;10.868;2023-02-22T09:19:40;10.70;;;7.10;;
16832;SDS011;8533;48.426;10.868;2023-02-22T09:22:09;13.60;;;7.73;;
16832;SDS011;8533;48.426;10.868;2023-02-22T09:24:37;14.33;;;7.10;;
16832;SDS011;8533;48.426;10.868;2023-02-22T09:27:06;12.77;;;7.43;;
16832;SDS011;8533;48.426;10.868;2023-02-22T09:29:35;12.80;;;7.20;;
16832;SDS011;8533;48.426;10.868;2023-02-22T09:32:04;12.43;;;7.17;;
16832;SDS011;8533;48.426;10.868;2023-02-22T09:34:31;13.17;;;6.80;;
16832;SDS011;8533;48.426;10.868;2023-02-22T09:36:59;17.60;;;7.27;;
16832;SDS011;8533;48.426;10.868;2023-02-22T09:39:29;12.43;;;6.40;;
16832;SDS011;8533;48.426;10.868;2023-02-22T09:47:44;13.80;;;6.50;;
16832;SDS011;8533;48.426;10.868;2023-02-22T10:00:34;10.17;;;5.27;;
16832;SDS011;8533;48.426;10.868;2023-02-22T10:06:03;9.53;;;5.40;;
16832;SDS011;8533;48.426;10.868;2023-02-22T10:11:48;7.47;;;4.37;;
16832;SDS011;8533;48.426;10.868;2023-02-22T10:13:50;7.87;;;4.20;;
16832;SDS011;8533;48.426;10.868;2023-02-22T10:16:25;6.70;;;4.40;;
16832;SDS011;8533;48.426;10.868;2023-02-22T10:19:05;6.43;;;3.83;;
16832;SDS011;8533;48.426;10.868;2023-02-22T10:29:37;5.40;;;3.07;;
16832;SDS011;8533;48.426;10.868;2023-02-22T10:34:47;5.13;;;3.40;;
16832;SDS011;8533;48.426;10.868;2023-02-22T10:37:27;3.77;;;2.87;;
16832;SDS011;8533;48.426;10.868;2023-02-22T10:42:42;4.70;;;3.10;;
16832;SDS011;8533;48.426;10.868;2023-02-22T10:45:20;7.30;;;3.37;;
16832;SDS011;8533;48.426;10.868;2023-02-22T10:50:14;7.23;;;3.67;;
16832;SDS011;8533;48.426;10.868;2023-02-22T10:52:43;3.80;;;3.10;;
16832;SDS011;8533;48.426;10.868;2023-02-22T10:55:12;4.90;;;2.90;;
16832;SDS011;8533;48.426;10.868;2023-02-22T10:57:41;5.30;;;3.53;;
16832;SDS011;8533;48.426;10.868;2023-02-22T11:00:18;4.27;;;2.80;;
16832;SDS011;8533;48.426;10.868;2023-02-22T11:05:29;4.47;;;2.50;;
16832;SDS011;8533;48.426;10.868;2023-02-22T11:10:43;8.80;;;2.75;;
16832;SDS011;8533;48.426;10.868;2023-02-22T11:13:17;3.67;;;2.40;;
16832;SDS011;8533;48.426;10.868;2023-02-22T11:15:59;6.60;;;3.00;;
16832;SDS011;8533;48.426;10.868;2023-02-22T11:18:30;11.47;;;2.67;;
16832;SDS011;8533;48.426;10.868;2023-02-22T11:21:00;8.67;;;2.40;;
16832;SDS011;8533;48.426;10.868;2023-02-22T11:23:29;3.73;;;2.30;;
16832;SDS011;8533;48.426;10.868;2023-02-22T11:26:01;2.83;;;2.27;;
16832;SDS011;8533;48.426;10.868;2023-02-22T11:31:08;3.50;;;2.30;;
16832;SDS011;8533;48.426;10.868;2023-02-22T11:38:57;2.93;;;2.33;;
16832;SDS011;8533;48.426;10.868;2023-02-22T11:41:29;5.40;;;2.10;;
16832;SDS011;8533;48.426;10.868;2023-02-22T11:44:12;3.90;;;2.23;;
16832;SDS011;8533;48.426;10.868;2023-02-22T11:46:48;2.40;;;2.17;;
16832;SDS011;8533;48.426;10.868;2023-02-22T11:49:18;2.50;;;2.00;;
16832;SDS011;8533;48.426;10.868;2023-02-22T11:51:50;2.90;;;2.07;;
16832;SDS011;8533;48.426;10.868;2023-02-22T11:59:58;3.63;;;2.20;;
16832;SDS011;8533;48.426;10.868;2023-02-22T12:05:18;2.45;;;2.05;;
16832;SDS011;8533;48.426;10.868;2023-02-22T12:21:06;4.53;;;2.43;;
16832;SDS011;8533;48.426;10.868;2023-02-22T12:31:56;3.47;;;1.93;;
16832;SDS011;8533;48.426;10.868;2023-02-22T12:34:33;4.43;;;2.30;;
16832;SDS011;8533;48.426;10.868;2023-02-22T12:42:14;2.43;;;2.00;;
16832;SDS011;8533;48.426;10.868;2023-02-22T12:44:44;2.70;;;2.10;;
16832;SDS011;8533;48.426;10.868;2023-02-22T12:47:15;2.00;;;1.80;;
16832;SDS011;8533;48.426;10.868;2023-02-22T12:49:48;2.30;;;2.10;;
16832;SDS011;8533;48.426;10.868;2023-02-22T12:52:22;3.70;;;2.00;;
16832;SDS011;8533;48.426;10.868;2023-02-22T12:57:34;2.20;;;2.00;;
16832;SDS011;8533;48.426;10.868;2023-02-22T13:00:07;2.70;;;2.00;;
16832;SDS011;8533;48.426;10.868;2023-02-22T13:02:35;3.57;;;1.90;;
16832;SDS011;8533;48.426;10.868;2023-02-22T13:05:12;5.07;;;2.10;;
16832;SDS011;8533;48.426;10.868;2023-02-22T13:16:23;2.37;;;1.80;;
16832;SDS011;8533;48.426;10.868;2023-02-22T13:21:50;3.33;;;1.80;;
16832;SDS011;8533;48.426;10.868;2023-02-22T13:29:49;1.93;;;1.73;;
16832;SDS011;8533;48.426;10.868;2023-02-22T13:34:56;3.47;;;2.20;;
16832;SDS011;8533;48.426;10.868;2023-02-22T13:40:52;2.20;;;2.00;;
16832;SDS011;8533;48.426;10.868;2023-02-22T13:43:33;3.45;;;2.15;;
16832;SDS011;8533;48.426;10.868;2023-02-22T13:48:44;4.07;;;2.20;;
16832;SDS011;8533;48.426;10.868;2023-02-22T13:51:35;3.60;;;2.10;;
16832;SDS011;8533;48.426;10.868;2023-02-22T13:54:37;4.57;;;2.20;;
16832;SDS011;8533;48.426;10.868;2023-02-22T13:57:28;2.43;;;2.13;;
16832;SDS011;8533;48.426;10.868;2023-02-22T14:18:29;7.33;;;3.30;;
16832;SDS011;8533;48.426;10.868;2023-02-22T14:21:05;5.53;;;3.10;;
16832;SDS011;8533;48.426;10.868;2023-02-22T14:26:16;8.53;;;3.87;;
16832;SDS011;8533;48.426;10.868;2023-02-22T14:34:19;5.90;;;3.50;;
16832;SDS011;8533;48.426;10.868;2023-02-22T14:36:59;5.27;;;3.60;;
16832;SDS011;8533;48.426;10.868;2023-02-22T14:42:07;6.17;;;3.73;;
16832;SDS011;8533;48.426;10.868;2023-02-22T14:44:50;5.23;;;3.33;;
16832;SDS011;8533;48.426;10.868;2023-02-22T14:47:36;5.53;;;3.40;;
16832;SDS011;8533;48.426;10.868;2023-02-22T14:50:24;7.70;;;3.50;;
16832;SDS011;8533;48.426;10.868;2023-02-22T14:52:58;6.17;;;3.77;;
16832;SDS011;8533;48.426;10.868;2023-02-22T14:55:25;9.23;;;3.20;;
16832;SDS011;8533;48.426;10.868;2023-02-22T15:00:43;5.13;;;2.87;;
16832;SDS011;8533;48.426;10.868;2023-02-22T15:06:04;8.40;;;3.43;;
16832;SDS011;8533;48.426;10.868;2023-02-22T15:08:54;8.50;;;4.30;;
16832;SDS011;8533;48.426;10.868;2023-02-22T15:11:33;10.00;;;4.90;;
16832;SDS011;8533;48.426;10.868;2023-02-22T15:14:01;9.57;;;4.50;;
16832;SDS011;8533;48.426;10.868;2023-02-22T15:16:32;13.67;;;5.23;;
16832;SDS011;8533;48.426;10.868;2023-02-22T15:19:03;10.03;;;4.50;;
16832;SDS011;8533;48.426;10.868;2023-02-22T15:21:33;10.37;;;4.90;;
16832;SDS011;8533;48.426;10.868;2023-02-22T15:24:04;14.20;;;5.47;;
16832;SDS011;8533;48.426;10.868;2023-02-22T15:26:36;11.73;;;5.13;;
16832;SDS011;8533;48.426;10.868;2023-02-22T15:31:41;10.83;;;5.30;;
16832;SDS011;8533;48.426;10.868;2023-02-22T15:36:57;11.75;;;5.00;;
16832;SDS011;8533;48.426;10.868;2023-02-22T15:39:29;15.33;;;5.23;;
16832;SDS011;8533;48.426;10.868;2023-02-22T15:42:06;14.47;;;5.37;;
16832;SDS011;8533;48.426;10.868;2023-02-22T15:47:03;13.63;;;5.73;;
16832;SDS011;8533;48.426;10.868;2023-02-22T15:49:31;12.03;;;5.10;;
16832;SDS011;8533;48.426;10.868;2023-02-22T15:52:01;10.30;;;4.90;;
16832;SDS011;8533;48.426;10.868;2023-02-22T15:54:36;10.67;;;4.73;;
16832;SDS011;8533;48.426;10.868;2023-02-22T15:59:38;10.53;;;4.70;;
16832;SDS011;8533;48.426;10.868;2023-02-22T16:02:04;13.43;;;5.37;;
16832;SDS011;8533;48.426;10.868;2023-02-22T16:04:32;10.10;;;4.97;;
16832;SDS011;8533;48.426;10.868;2023-02-22T16:07:02;8.80;;;5.00;;
16832;SDS011;8533;48.426;10.868;2023-02-22T16:09:32;13.23;;;5.53;;
16832;SDS011;8533;48.426;10.868;2023-02-22T16:14:47;8.97;;;5.70;;
16832;SDS011;8533;48.426;10.868;2023-02-22T16:30:25;14.80;;;6.70;;
16832;SDS011;8533;48.426;10.868;2023-02-22T16:32:56;10.03;;;6.00;;
16832;SDS011;8533;48.426;10.868;2023-02-22T16:35:25;13.20;;;7.20;;
16832;SDS011;8533;48.426;10.868;2023-02-22T16:37:55;10.87;;;7.00;;
16832;SDS011;8533;48.426;10.868;2023-02-22T16:42:57;10.40;;;6.37;;
16832;SDS011;8533;48.426;10.868;2023-02-22T16:45:26;10.67;;;5.93;;
16832;SDS011;8533;48.426;10.868;2023-02-22T16:47:54;14.30;;;6.73;;
16832;SDS011;8533;48.426;10.868;2023-02-22T16:50:25;10.63;;;6.43;;
16832;SDS011;8533;48.426;10.868;2023-02-22T16:55:26;12.33;;;6.77;;
16832;SDS011;8533;48.426;10.868;2023-02-22T16:57:56;10.13;;;6.50;;
16832;SDS011;8533;48.426;10.868;2023-02-22T17:00:25;12.87;;;7.07;;
16832;SDS011;8533;48.426;10.868;2023-02-22T17:02:57;10.20;;;6.47;;
16832;SDS011;8533;48.426;10.868;2023-02-22T17:05:27;14.43;;;6.90;;
16832;SDS011;8533;48.426;10.868;2023-02-22T17:07:55;9.57;;;6.17;;
16832;SDS011;8533;48.426;10.868;2023-02-22T17:10:23;11.23;;;7.10;;
16832;SDS011;8533;48.426;10.868;2023-02-22T17:12:51;15.40;;;7.73;;
16832;SDS011;8533;48.426;10.868;2023-02-22T17:15:22;13.07;;;7.07;;
16832;SDS011;8533;48.426;10.868;2023-02-22T17:20:22;11.37;;;6.70;;
16832;SDS011;8533;48.426;10.868;2023-02-22T17:23:00;15.40;;;7.13;;
16832;SDS011;8533;48.426;10.868;2023-02-22T17:25:32;15.57;;;7.73;;
16832;SDS011;8533;48.426;10.868;2023-02-22T17:28:12;17.80;;;8.30;;
16832;SDS011;8533;48.426;10.868;2023-02-22T17:30:40;13.60;;;7.13;;
16832;SDS011;8533;48.426;10.868;2023-02-22T17:33:09;14.80;;;7.60;;
16832;SDS011;8533;48.426;10.868;2023-02-22T17:35:43;11.53;;;7.27;;
16832;SDS011;8533;48.426;10.868;2023-02-22T17:38:12;14.30;;;7.27;;
16832;SDS011;8533;48.426;10.868;2023-02-22T17:40:41;12.70;;;7.03;;
16832;SDS011;8533;48.426;10.868;2023-02-22T17:43:09;16.57;;;7.57;;
16832;SDS011;8533;48.426;10.868;2023-02-22T17:45:37;14.50;;;7.90;;
16832;SDS011;8533;48.426;10.868;2023-02-22T17:48:08;12.00;;;7.33;;
16832;SDS011;8533;48.426;10.868;2023-02-22T17:50:36;15.07;;;7.10;;
16832;SDS011;8533;48.426;10.868;2023-02-22T17:53:06;14.90;;;6.73;;
16832;SDS011;8533;48.426;10.868;2023-02-22T17:55:36;12.23;;;7.37;;
16832;SDS011;8533;48.426;10.868;2023-02-22T17:58:05;15.13;;;7.33;;
16832;SDS011;8533;48.426;10.868;2023-02-22T18:00:36;14.93;;;7.50;;
16832;SDS011;8533;48.426;10.868;2023-02-22T18:03:09;12.17;;;7.00;;
16832;SDS011;8533;48.426;10.868;2023-02-22T18:05:43;13.97;;;7.17;;
16832;SDS011;8533;48.426;10.868;2023-02-22T18:10:39;13.43;;;7.27;;
16832;SDS011;8533;48.426;10.868;2023-02-22T18:13:08;13.47;;;8.00;;
16832;SDS011;8533;48.426;10.868;2023-02-22T18:15:42;13.77;;;9.00;;
16832;SDS011;8533;48.426;10.868;2023-02-22T18:18:10;17.17;;;8.87;;
16832;SDS011;8533;48.426;10.868;2023-02-22T18:20:39;15.03;;;8.73;;
16832;SDS011;8533;48.426;10.868;2023-02-22T18:23:14;14.37;;;7.63;;
16832;SDS011;8533;48.426;10.868;2023-02-22T18:25:48;12.83;;;7.53;;
16832;SDS011;8533;48.426;10.868;2023-02-22T18:30:45;10.17;;;6.57;;
16832;SDS011;8533;48.426;10.868;2023-02-22T18:33:14;12.07;;;6.27;;
16832;SDS011;8533;48.426;10.868;2023-02-22T18:35:44;11.53;;;6.27;;
16832;SDS011;8533;48.426;10.868;2023-02-22T18:38:15;9.97;;;5.10;;
16832;SDS011;8533;48.426;10.868;2023-02-22T18:40:44;10.83;;;5.90;;
16832;SDS011;8533;48.426;10.868;2023-02-22T18:43:12;9.30;;;6.40;;
16832;SDS011;8533;48.426;10.868;2023-02-22T18:45:39;11.17;;;6.33;;
16832;SDS011;8533;48.426;10.868;2023-02-22T18:48:07;13.27;;;6.20;;
16832;SDS011;8533;48.426;10.868;2023-02-22T18:50:35;11.30;;;6.50;;
16832;SDS011;8533;48.426;10.868;2023-02-22T18:53:02;15.07;;;7.20;;
16832;SDS011;8533;48.426;10.868;2023-02-22T18:55:29;15.97;;;7.23;;
16832;SDS011;8533;48.426;10.868;2023-02-22T18:57:57;13.43;;;7.33;;
16832;SDS011;8533;48.426;10.868;2023-02-22T19:00:26;15.07;;;8.37;;